Time;durP1;ratioP1;P1;durP2;ratioP2;P2;SDS_P1;SDS_P2;PMS_P1;PMS_P2;Temp;Humidity;BMP_temperature;BMP_pressure;BME280_temperature;BME280_humidity;BME280_pressure;Samples;Min_cycle;Max_cycle;Signal;HPM_P1;HPM_P2
2021/07/28 00:01:44;;;;;;;10.27;6.63;;;;;;;;;;10249748;28;20236;-72
2021/07/28 00:06:46;;;;;;;11.17;7.37;;;;;;;;;;10246116;28;20436;-73
2021/07/28 00:11:50;;;;;;;10.53;7.40;;;;;;;;;;10242367;28;20207;-73
2021/07/28 00:16:53;;;;;;;12.20;7.53;;;;;;;;;;10243735;28;20297;-71
2021/07/28 00:27:17;;;;;;;10.70;5.93;;;;;;;;;;10244046;28;20306;-74
2021/07/28 00:32:19;;;;;;;10.07;5.60;;;;;;;;;;10254060;28;20228;-74
2021/07/28 00:37:22;;;;;;;8.33;4.70;;;;;;;;;;10251870;28;20212;-74
2021/07/28 00:42:26;;;;;;;8.33;4.83;;;;;;;;;;10256189;28;20224;-73
2021/07/28 00:47:29;;;;;;;7.97;4.13;;;;;;;;;;10256857;28;20216;-73
2021/07/28 00:52:37;;;;;;;9.33;4.90;;;;;;;;;;10260588;28;20197;-74
2021/07/28 00:57:41;;;;;;;7.63;4.57;;;;;;;;;;10249915;28;20216;-73
2021/07/28 01:02:44;;;;;;;7.43;3.90;;;;;;;;;;10250474;28;20207;-73
2021/07/28 01:07:46;;;;;;;8.17;4.33;;;;;;;;;;10240070;28;20226;-73
2021/07/28 01:12:54;;;;;;;7.87;4.07;;;;;;;;;;10257350;28;20208;-73
2021/07/28 01:17:57;;;;;;;7.10;3.60;;;;;;;;;;10243886;28;20211;-74
2021/07/28 01:23:00;;;;;;;9.40;4.10;;;;;;;;;;10247558;28;20205;-72
2021/07/28 01:28:04;;;;;;;6.97;4.00;;;;;;;;;;10244428;28;20802;-73
2021/07/28 01:33:07;;;;;;;9.07;4.07;;;;;;;;;;10242291;28;20263;-73
2021/07/28 01:38:10;;;;;;;8.53;4.20;;;;;;;;;;10243702;28;20212;-74
2021/07/28 01:43:15;;;;;;;8.33;5.03;;;;;;;;;;10255145;28;20625;-73
2021/07/28 01:48:17;;;;;;;10.27;4.67;;;;;;;;;;10249915;28;20692;-74
2021/07/28 01:53:20;;;;;;;8.27;4.80;;;;;;;;;;10251598;28;20288;-73
2021/07/28 01:58:24;;;;;;;9.17;4.90;;;;;;;;;;10246627;28;20231;-73
2021/07/28 02:03:27;;;;;;;10.10;5.27;;;;;;;;;;10248173;28;20680;-72
2021/07/28 02:08:30;;;;;;;9.07;4.83;;;;;;;;;;10242618;28;20220;-73
2021/07/28 02:13:33;;;;;;;9.17;4.83;;;;;;;;;;10240647;28;20314;-75
2021/07/28 02:18:36;;;;;;;9.50;5.83;;;;;;;;;;10243527;28;20538;-74
2021/07/28 02:23:41;;;;;;;9.50;5.10;;;;;;;;;;10239070;28;20573;-72
2021/07/28 02:28:45;;;;;;;9.60;5.37;;;;;;;;;;10254076;28;20208;-73
2021/07/28 02:33:47;;;;;;;9.23;4.93;;;;;;;;;;10237533;28;20228;-73
2021/07/28 02:38:49;;;;;;;8.13;4.50;;;;;;;;;;10246551;28;20559;-73
2021/07/28 02:43:53;;;;;;;8.07;3.83;;;;;;;;;;10248218;28;20200;-73
2021/07/28 02:48:56;;;;;;;6.57;3.53;;;;;;;;;;10264581;28;20221;-73
2021/07/28 02:53:58;;;;;;;7.13;4.00;;;;;;;;;;10249601;28;20653;-73
2021/07/28 02:59:02;;;;;;;7.30;3.57;;;;;;;;;;10248542;28;20185;-74
2021/07/28 03:04:05;;;;;;;7.17;3.60;;;;;;;;;;10253025;28;20224;-74
2021/07/28 03:09:08;;;;;;;7.53;3.67;;;;;;;;;;10248341;28;20472;-73
2021/07/28 03:14:12;;;;;;;6.53;3.53;;;;;;;;;;10250656;28;20310;-74
2021/07/28 03:19:15;;;;;;;6.83;3.60;;;;;;;;;;10258169;28;20200;-73
2021/07/28 03:24:18;;;;;;;7.53;3.93;;;;;;;;;;10254013;28;20299;-76
2021/07/28 03:29:23;;;;;;;7.07;3.63;;;;;;;;;;10256932;28;20204;-74
2021/07/28 03:34:26;;;;;;;6.90;3.77;;;;;;;;;;10262022;28;20307;-75
2021/07/28 03:39:30;;;;;;;7.90;4.13;;;;;;;;;;10252369;28;20231;-75
2021/07/28 03:44:34;;;;;;;8.37;4.73;;;;;;;;;;10254787;28;20224;-76
2021/07/28 03:49:36;;;;;;;8.13;4.17;;;;;;;;;;10245358;28;20561;-75
2021/07/28 03:54:39;;;;;;;9.40;5.23;;;;;;;;;;10238884;28;20299;-76
2021/07/28 03:59:43;;;;;;;10.17;5.60;;;;;;;;;;10255024;28;20197;-75
2021/07/28 04:04:45;;;;;;;10.17;5.50;;;;;;;;;;10237700;28;20212;-74
2021/07/28 04:09:48;;;;;;;10.67;5.77;;;;;;;;;;10241392;28;20222;-76
2021/07/28 04:14:52;;;;;;;11.00;6.43;;;;;;;;;;10247158;28;20220;-76
2021/07/28 04:19:54;;;;;;;10.50;5.97;;;;;;;;;;10243939;28;20193;-76
2021/07/28 04:24:57;;;;;;;11.07;6.57;;;;;;;;;;10247626;28;20234;-77
2021/07/28 04:30:01;;;;;;;11.30;6.70;;;;;;;;;;10249137;28;20262;-76
2021/07/28 04:35:04;;;;;;;11.80;7.00;;;;;;;;;;10225484;28;20293;-76
2021/07/28 04:40:07;;;;;;;12.17;7.23;;;;;;;;;;10217466;28;20323;-74
2021/07/28 04:45:11;;;;;;;10.87;6.10;;;;;;;;;;10225491;28;20224;-74
2021/07/28 04:50:14;;;;;;;11.77;6.30;;;;;;;;;;10250188;28;20312;-75
2021/07/28 04:55:17;;;;;;;10.10;6.33;;;;;;;;;;10246320;28;20235;-73
2021/07/28 05:00:21;;;;;;;10.37;6.20;;;;;;;;;;10251520;28;20311;-73
2021/07/28 05:05:24;;;;;;;10.73;6.10;;;;;;;;;;10247758;28;20574;-74
2021/07/28 05:10:26;;;;;;;9.40;4.93;;;;;;;;;;10247932;28;20700;-75
2021/07/28 05:15:30;;;;;;;9.57;5.13;;;;;;;;;;10248281;28;20228;-74
2021/07/28 05:20:33;;;;;;;10.93;4.73;;;;;;;;;;10241042;28;20193;-74
2021/07/28 05:25:36;;;;;;;7.57;4.10;;;;;;;;;;10263850;28;20216;-74
2021/07/28 05:30:39;;;;;;;9.73;4.50;;;;;;;;;;10246687;28;20228;-74
2021/07/28 05:35:47;;;;;;;7.57;3.77;;;;;;;;;;10247230;28;20286;-75
2021/07/28 05:40:55;;;;;;;7.23;3.70;;;;;;;;;;10251648;28;20193;-75
2021/07/28 05:46:00;;;;;;;7.50;4.20;;;;;;;;;;10241061;28;20243;-76
2021/07/28 05:51:02;;;;;;;7.20;3.80;;;;;;;;;;10245713;28;20271;-74
2021/07/28 05:56:05;;;;;;;9.87;5.17;;;;;;;;;;10254902;28;20303;-74
2021/07/28 06:01:09;;;;;;;8.67;4.37;;;;;;;;;;10234615;28;20267;-73
2021/07/28 06:06:12;;;;;;;9.03;4.60;;;;;;;;;;10242690;28;20240;-74
2021/07/28 06:11:14;;;;;;;7.93;4.27;;;;;;;;;;10250188;28;20223;-74
2021/07/28 06:16:19;;;;;;;10.57;4.63;;;;;;;;;;10249570;28;20310;-75
2021/07/28 06:21:21;;;;;;;8.13;4.67;;;;;;;;;;10253232;28;20215;-75
2021/07/28 06:26:24;;;;;;;8.30;4.63;;;;;;;;;;10252519;28;20212;-75
2021/07/28 06:31:28;;;;;;;7.57;4.13;;;;;;;;;;10239000;28;20216;-76
2021/07/28 06:36:30;;;;;;;9.83;4.00;;;;;;;;;;10249328;28;20219;-75
2021/07/28 06:41:33;;;;;;;7.50;3.75;;;;;;;;;;10244803;28;20216;-78
2021/07/28 06:46:37;;;;;;;8.60;4.20;;;;;;;;;;10241584;28;20228;-73
2021/07/28 06:51:39;;;;;;;9.73;4.28;;;;;;;;;;10246467;28;20722;-74
2021/07/28 06:56:42;;;;;;;7.80;4.53;;;;;;;;;;10236382;28;20244;-74
2021/07/28 07:01:46;;;;;;;6.93;3.75;;;;;;;;;;10242777;28;20669;-74
2021/07/28 07:06:49;;;;;;;7.63;3.90;;;;;;;;;;10245755;28;20209;-73
2021/07/28 07:11:52;;;;;;;9.60;4.30;;;;;;;;;;10247592;28;20215;-73
2021/07/28 07:16:58;;;;;;;7.97;3.85;;;;;;;;;;10247920;28;20239;-73
2021/07/28 07:22:00;;;;;;;7.93;4.05;;;;;;;;;;10242852;28;20719;-74
2021/07/28 07:27:03;;;;;;;9.73;4.68;;;;;;;;;;10239809;28;20243;-73
2021/07/28 07:32:07;;;;;;;9.63;4.22;;;;;;;;;;10237942;28;20250;-74
2021/07/28 07:37:10;;;;;;;9.65;5.05;;;;;;;;;;10239572;28;20227;-73
2021/07/28 07:42:12;;;;;;;10.70;5.50;;;;;;;;;;10246150;28;20189;-73
2021/07/28 07:47:18;;;;;;;11.65;7.63;;;;;;;;;;10247261;28;20208;-74
2021/07/28 07:52:20;;;;;;;10.20;5.40;;;;;;;;;;10247832;28;20200;-74
2021/07/28 07:57:23;;;;;;;9.68;5.05;;;;;;;;;;10236371;28;20215;-74
2021/07/28 08:02:27;;;;;;;9.85;5.10;;;;;;;;;;10245254;28;20196;-73
2021/07/28 08:07:30;;;;;;;8.85;5.22;;;;;;;;;;10238120;28;20239;-73
2021/07/28 08:12:34;;;;;;;9.80;5.45;;;;;;;;;;10250296;28;20211;-73
2021/07/28 08:17:38;;;;;;;11.52;6.07;;;;;;;;;;10253240;28;20219;-74
2021/07/28 08:22:40;;;;;;;10.40;6.03;;;;;;;;;;10237656;28;20281;-73
2021/07/28 08:27:43;;;;;;;10.90;6.63;;;;;;;;;;10245452;28;20220;-73
2021/07/28 08:32:47;;;;;;;10.38;6.50;;;;;;;;;;10247682;28;20220;-73
2021/07/28 08:37:49;;;;;;;10.30;6.25;;;;;;;;;;10255861;28;20240;-74
2021/07/28 08:42:54;;;;;;;9.77;6.10;;;;;;;;;;10246383;28;20751;-75
2021/07/28 08:47:58;;;;;;;10.98;6.82;;;;;;;;;;10232704;28;20304;-74
2021/07/28 08:53:01;;;;;;;12.45;7.15;;;;;;;;;;10241484;28;20197;-74
2021/07/28 08:58:04;;;;;;;12.60;8.02;;;;;;;;;;10240126;28;20224;-74
2021/07/28 09:03:08;;;;;;;15.93;8.38;;;;;;;;;;10254595;28;20223;-74
2021/07/28 09:08:22;;;;;;;13.65;7.93;;;;;;;;;;10233926;28;20252;-75
2021/07/28 09:13:28;;;;;;;14.15;8.77;;;;;;;;;;10246294;28;20212;-74
2021/07/28 09:18:34;;;;;;;14.32;9.30;;;;;;;;;;10237585;28;20825;-74
2021/07/28 09:23:38;;;;;;;14.00;8.77;;;;;;;;;;10239264;28;20249;-74
2021/07/28 09:28:41;;;;;;;12.97;8.67;;;;;;;;;;10255006;28;20370;-74
2021/07/28 09:34:05;;;;;;;14.53;8.57;;;;;;;;;;10250466;28;20208;-73
2021/07/28 09:39:07;;;;;;;14.20;8.67;;;;;;;;;;10252611;28;20196;-74
2021/07/28 09:44:27;;;;;;;14.83;9.23;;;;;;;;;;10246223;28;20269;-74
2021/07/28 09:49:31;;;;;;;15.00;8.93;;;;;;;;;;10241469;28;20315;-74
2021/07/28 09:54:33;;;;;;;15.53;9.70;;;;;;;;;;10245831;28;20235;-74
2021/07/28 09:59:37;;;;;;;15.73;9.67;;;;;;;;;;10242147;28;20188;-75
2021/07/28 10:04:46;;;;;;;13.70;8.20;;;;;;;;;;10237227;28;20219;-74
2021/07/28 10:09:51;;;;;;;17.67;10.57;;;;;;;;;;10249456;28;20218;-75
2021/07/28 10:14:54;;;;;;;17.43;9.60;;;;;;;;;;10262684;28;20230;-76
2021/07/28 10:19:58;;;;;;;12.07;7.43;;;;;;;;;;10242611;28;20189;-75
2021/07/28 10:25:07;;;;;;;12.60;7.10;;;;;;;;;;10249296;28;20295;-76
2021/07/28 10:30:13;;;;;;;11.43;7.13;;;;;;;;;;10251149;28;20216;-75
2021/07/28 10:35:25;;;;;;;12.20;6.63;;;;;;;;;;10253218;28;20216;-74
2021/07/28 10:40:47;;;;;;;10.67;6.17;;;;;;;;;;10252227;28;20201;-73
2021/07/28 10:45:55;;;;;;;9.40;5.03;;;;;;;;;;10239403;28;20258;-75
2021/07/28 10:50:59;;;;;;;8.57;4.50;;;;;;;;;;10242604;28;20745;-74
2021/07/28 10:56:09;;;;;;;9.57;4.40;;;;;;;;;;10243292;28;20252;-74
2021/07/28 11:01:12;;;;;;;8.43;5.03;;;;;;;;;;10245482;28;20199;-75
2021/07/28 11:06:23;;;;;;;8.00;4.27;;;;;;;;;;10250459;28;20220;-74
2021/07/28 11:11:28;;;;;;;9.80;4.60;;;;;;;;;;10245251;28;20200;-75
2021/07/28 11:16:30;;;;;;;8.70;4.53;;;;;;;;;;10247916;28;20306;-74
2021/07/28 11:21:34;;;;;;;8.43;4.30;;;;;;;;;;10241894;28;20584;-78
2021/07/28 11:26:37;;;;;;;8.65;4.03;;;;;;;;;;10259249;28;20231;-74
2021/07/28 11:31:41;;;;;;;7.43;4.00;;;;;;;;;;10251975;28;20596;-74
2021/07/28 11:36:46;;;;;;;6.38;3.75;;;;;;;;;;10240986;28;20220;-74
2021/07/28 11:41:50;;;;;;;8.60;4.35;;;;;;;;;;10248279;28;20196;-76
2021/07/28 11:46:53;;;;;;;7.80;4.55;;;;;;;;;;10245942;28;20224;-76
2021/07/28 11:52:01;;;;;;;6.55;3.67;;;;;;;;;;10238169;28;20225;-75
2021/07/28 11:57:03;;;;;;;6.70;3.83;;;;;;;;;;10246283;28;20633;-75
2021/07/28 12:02:06;;;;;;;7.10;3.95;;;;;;;;;;10245292;28;20196;-75
2021/07/28 12:07:11;;;;;;;8.07;3.80;;;;;;;;;;10238424;28;20216;-76
2021/07/28 12:12:20;;;;;;;8.48;3.78;;;;;;;;;;10234470;28;20216;-74
2021/07/28 12:17:23;;;;;;;6.90;3.40;;;;;;;;;;10247716;28;20232;-74
2021/07/28 12:22:34;;;;;;;8.45;4.10;;;;;;;;;;10243870;28;20270;-75
2021/07/28 12:27:38;;;;;;;7.32;3.67;;;;;;;;;;10243620;28;20215;-75
2021/07/28 12:32:43;;;;;;;7.80;3.85;;;;;;;;;;10244844;28;20215;-76
2021/07/28 12:37:47;;;;;;;7.75;3.80;;;;;;;;;;10242962;28;20596;-76
2021/07/28 12:42:50;;;;;;;6.38;3.65;;;;;;;;;;10231851;28;20620;-75
2021/07/28 12:47:53;;;;;;;7.35;3.60;;;;;;;;;;10236142;28;20224;-75
2021/07/28 12:52:58;;;;;;;7.15;3.88;;;;;;;;;;10237167;28;20294;-75
2021/07/28 12:58:00;;;;;;;6.75;3.53;;;;;;;;;;10238999;28;20236;-74
2021/07/28 13:03:05;;;;;;;7.07;3.60;;;;;;;;;;10242673;28;20188;-75
2021/07/28 13:08:10;;;;;;;6.13;3.22;;;;;;;;;;10248425;28;20226;-75
2021/07/28 13:13:13;;;;;;;5.82;3.17;;;;;;;;;;10246218;28;20311;-76
2021/07/28 13:18:16;;;;;;;6.15;3.05;;;;;;;;;;10244021;28;20212;-75
2021/07/28 13:23:20;;;;;;;9.63;4.07;;;;;;;;;;10231593;28;20271;-74
2021/07/28 13:28:23;;;;;;;6.07;3.35;;;;;;;;;;10235237;28;20283;-75
2021/07/28 13:33:26;;;;;;;6.30;3.15;;;;;;;;;;10247535;28;20254;-76
2021/07/28 13:38:30;;;;;;;7.03;3.40;;;;;;;;;;10234465;28;20248;-75
2021/07/28 13:43:33;;;;;;;6.50;3.45;;;;;;;;;;10244223;28;20255;-74
2021/07/28 13:48:35;;;;;;;6.95;3.90;;;;;;;;;;10241976;28;20226;-75
2021/07/28 13:53:39;;;;;;;6.65;3.53;;;;;;;;;;10240897;28;20209;-75
2021/07/28 13:58:42;;;;;;;7.88;4.50;;;;;;;;;;10235976;28;20212;-75
2021/07/28 14:03:45;;;;;;;7.53;3.88;;;;;;;;;;10236040;28;20351;-74
2021/07/28 14:08:49;;;;;;;6.30;3.60;;;;;;;;;;10250398;28;20255;-74
2021/07/28 14:13:51;;;;;;;6.30;3.30;;;;;;;;;;10238564;28;20212;-75
2021/07/28 14:18:54;;;;;;;6.90;3.72;;;;;;;;;;10250776;28;20284;-75
2021/07/28 14:23:58;;;;;;;8.32;3.78;;;;;;;;;;10227954;28;20235;-75
2021/07/28 14:29:00;;;;;;;8.52;3.88;;;;;;;;;;10233141;28;20303;-75
2021/07/28 14:34:03;;;;;;;7.93;4.32;;;;;;;;;;10245425;28;20286;-75
2021/07/28 14:39:08;;;;;;;7.50;3.97;;;;;;;;;;10266507;28;20215;-74
2021/07/28 14:44:12;;;;;;;8.50;3.72;;;;;;;;;;10254000;28;20287;-74
2021/07/28 14:49:15;;;;;;;8.07;4.00;;;;;;;;;;10244922;28;20289;-75
2021/07/28 14:54:22;;;;;;;8.25;4.20;;;;;;;;;;10246364;28;20219;-76
2021/07/28 14:59:24;;;;;;;7.80;4.20;;;;;;;;;;10244984;28;20665;-73
2021/07/28 15:04:27;;;;;;;8.32;4.07;;;;;;;;;;10255559;28;20656;-73
2021/07/28 15:09:31;;;;;;;8.50;4.50;;;;;;;;;;10247452;28;20197;-75
2021/07/28 15:14:33;;;;;;;8.57;4.20;;;;;;;;;;10251602;28;20390;-75
2021/07/28 15:19:36;;;;;;;6.97;3.83;;;;;;;;;;10237616;28;20224;-74
2021/07/28 15:24:40;;;;;;;7.80;3.42;;;;;;;;;;10256861;28;20305;-75
2021/07/28 15:29:43;;;;;;;6.13;3.45;;;;;;;;;;10243492;28;20192;-72
2021/07/28 15:34:45;;;;;;;5.30;3.08;;;;;;;;;;10245036;28;20698;-74
2021/07/28 15:40:03;;;;;;;5.95;2.80;;;;;;;;;;10243293;28;20197;-74
2021/07/28 15:45:08;;;;;;;6.28;2.80;;;;;;;;;;10243822;28;20216;-72
2021/07/28 15:50:12;;;;;;;6.63;3.35;;;;;;;;;;10247172;28;20278;-76
2021/07/28 15:55:14;;;;;;;7.47;3.15;;;;;;;;;;10244428;28;20216;-75
2021/07/28 16:00:19;;;;;;;5.97;2.60;;;;;;;;;;10241354;28;20192;-73
2021/07/28 16:05:21;;;;;;;5.35;2.47;;;;;;;;;;10256460;28;20665;-73
2021/07/28 16:10:24;;;;;;;4.10;1.98;;;;;;;;;;10245093;28;20223;-74
2021/07/28 16:15:31;;;;;;;5.65;3.00;;;;;;;;;;10261553;28;20235;-74
2021/07/28 16:20:33;;;;;;;5.97;3.05;;;;;;;;;;10248550;28;20506;-74
2021/07/28 16:25:37;;;;;;;4.88;2.88;;;;;;;;;;10264445;28;20724;-74
2021/07/28 16:30:41;;;;;;;5.57;2.63;;;;;;;;;;10242087;28;20584;-75
2021/07/28 16:35:45;;;;;;;5.03;2.70;;;;;;;;;;10252663;28;20236;-74
2021/07/28 16:40:48;;;;;;;5.65;2.72;;;;;;;;;;10252856;28;20196;-73
2021/07/28 16:45:52;;;;;;;4.68;2.67;;;;;;;;;;10246918;28;20291;-74
2021/07/28 16:50:55;;;;;;;7.68;3.70;;;;;;;;;;10252789;28;20590;-74
2021/07/28 16:55:57;;;;;;;4.95;2.53;;;;;;;;;;10248782;28;20300;-74
2021/07/28 17:01:01;;;;;;;7.57;3.83;;;;;;;;;;10241800;28;20560;-74
2021/07/28 17:06:04;;;;;;;8.10;3.50;;;;;;;;;;10240951;28;20224;-74
2021/07/28 17:11:07;;;;;;;6.10;3.00;;;;;;;;;;10239117;28;20216;-73
2021/07/28 17:16:11;;;;;;;4.90;2.70;;;;;;;;;;10241413;28;20271;-75
2021/07/28 17:21:13;;;;;;;5.53;2.70;;;;;;;;;;10240505;28;20223;-73
2021/07/28 17:26:16;;;;;;;7.93;4.43;;;;;;;;;;10242584;28;20319;-74
2021/07/28 17:31:20;;;;;;;4.22;2.05;;;;;;;;;;10239872;28;20768;-75
2021/07/28 17:36:23;;;;;;;3.85;1.75;;;;;;;;;;10238949;28;20228;-75
2021/07/28 17:41:25;;;;;;;4.57;2.35;;;;;;;;;;10248939;28;20264;-75
2021/07/28 17:46:31;;;;;;;2.78;1.80;;;;;;;;;;10246798;28;20244;-75
2021/07/28 17:51:34;;;;;;;4.75;2.15;;;;;;;;;;10247202;28;20205;-76
2021/07/28 17:56:37;;;;;;;5.20;2.23;;;;;;;;;;10244094;28;20299;-75
2021/07/28 18:01:40;;;;;;;4.45;2.28;;;;;;;;;;10246034;28;20279;-72
2021/07/28 18:06:50;;;;;;;4.85;2.30;;;;;;;;;;10239113;28;20220;-74
2021/07/28 18:11:52;;;;;;;6.30;3.13;;;;;;;;;;10253991;28;20279;-74
2021/07/28 18:16:56;;;;;;;6.37;2.63;;;;;;;;;;10252711;28;20704;-76
2021/07/28 18:21:59;;;;;;;6.83;3.10;;;;;;;;;;10250604;28;20198;-76
2021/07/28 18:27:01;;;;;;;4.83;2.40;;;;;;;;;;10248799;28;20224;-75
2021/07/28 18:32:06;;;;;;;5.90;2.80;;;;;;;;;;10249003;28;20235;-74
2021/07/28 18:37:08;;;;;;;8.63;3.40;;;;;;;;;;10249471;28;20223;-74
2021/07/28 18:42:11;;;;;;;7.60;3.77;;;;;;;;;;10235648;28;20323;-73
2021/07/28 18:47:15;;;;;;;9.27;3.87;;;;;;;;;;10243545;28;20575;-69
2021/07/28 18:52:17;;;;;;;4.13;1.67;;;;;;;;;;10252667;28;20350;-70
2021/07/28 18:57:20;;;;;;;5.90;2.50;;;;;;;;;;10249555;28;20311;-70
2021/07/28 19:02:24;;;;;;;7.05;3.20;;;;;;;;;;10236491;28;20885;-70
2021/07/28 19:07:27;;;;;;;5.77;2.73;;;;;;;;;;10226087;28;20228;-70
2021/07/28 19:12:29;;;;;;;8.00;3.63;;;;;;;;;;10219519;28;20213;-70
2021/07/28 19:17:34;;;;;;;8.23;3.10;;;;;;;;;;10242512;28;20223;-69
2021/07/28 19:22:37;;;;;;;6.07;2.97;;;;;;;;;;10231499;28;20197;-72
2021/07/28 19:27:40;;;;;;;5.33;2.70;;;;;;;;;;10246626;28;20252;-71
2021/07/28 19:32:44;;;;;;;5.57;2.80;;;;;;;;;;10245137;28;20280;-76
2021/07/28 19:37:46;;;;;;;5.67;2.83;;;;;;;;;;10238997;28;20236;-75
2021/07/28 19:42:49;;;;;;;6.90;2.77;;;;;;;;;;10235500;28;20362;-70
2021/07/28 19:47:54;;;;;;;6.73;2.87;;;;;;;;;;10251374;28;20228;-74
2021/07/28 19:52:58;;;;;;;6.32;2.88;;;;;;;;;;10251816;28;20518;-74
2021/07/28 19:58:00;;;;;;;7.90;3.20;;;;;;;;;;10273611;28;20223;-73
2021/07/28 20:03:04;;;;;;;6.07;2.57;;;;;;;;;;10245987;28;20195;-74
2021/07/28 20:08:08;;;;;;;5.23;2.00;;;;;;;;;;10241377;28;20228;-74
2021/07/28 20:13:10;;;;;;;4.90;2.47;;;;;;;;;;10245975;28;20704;-73
2021/07/28 20:18:14;;;;;;;4.30;2.50;;;;;;;;;;10247793;28;20219;-72
2021/07/28 20:23:17;;;;;;;5.97;2.60;;;;;;;;;;10229584;28;20188;-72
2021/07/28 20:28:21;;;;;;;5.33;2.93;;;;;;;;;;10233485;28;20525;-72
2021/07/28 20:33:25;;;;;;;5.87;2.30;;;;;;;;;;10231539;28;20279;-74
2021/07/28 20:38:28;;;;;;;5.50;2.33;;;;;;;;;;10227319;28;20999;-73
2021/07/28 20:43:31;;;;;;;6.23;2.37;;;;;;;;;;10226387;28;21432;-73
2021/07/28 20:48:35;;;;;;;4.83;2.23;;;;;;;;;;10233330;28;20290;-74
2021/07/28 20:53:38;;;;;;;4.30;2.40;;;;;;;;;;10229443;28;20218;-75
2021/07/28 20:58:40;;;;;;;5.83;2.77;;;;;;;;;;10236644;28;20232;-73
2021/07/28 21:03:44;;;;;;;6.10;2.57;;;;;;;;;;10242165;28;20577;-72
2021/07/28 21:08:47;;;;;;;6.27;2.50;;;;;;;;;;10240991;28;20271;-73
2021/07/28 21:13:49;;;;;;;4.30;2.23;;;;;;;;;;10243874;28;20216;-73
2021/07/28 21:18:53;;;;;;;6.47;2.60;;;;;;;;;;10242442;28;20279;-73
2021/07/28 21:23:57;;;;;;;6.10;2.50;;;;;;;;;;10242276;28;20197;-73
2021/07/28 21:29:00;;;;;;;6.83;3.40;;;;;;;;;;10243834;28;20228;-74
2021/07/28 21:34:05;;;;;;;6.77;3.20;;;;;;;;;;10245716;28;20212;-74
2021/07/28 21:39:09;;;;;;;4.60;2.23;;;;;;;;;;10245313;28;20706;-74
2021/07/28 21:44:13;;;;;;;6.23;3.00;;;;;;;;;;10243681;28;20664;-74
2021/07/28 21:49:22;;;;;;;6.03;2.80;;;;;;;;;;10263990;28;20219;-74
2021/07/28 21:54:27;;;;;;;11.37;2.70;;;;;;;;;;10236671;28;20723;-75
2021/07/28 21:59:35;;;;;;;7.37;2.40;;;;;;;;;;10217446;28;20200;-74
2021/07/28 22:04:40;;;;;;;3.87;2.07;;;;;;;;;;10217075;28;20252;-73
2021/07/28 22:09:44;;;;;;;5.47;2.40;;;;;;;;;;10210813;28;20279;-73
2021/07/28 22:14:46;;;;;;;8.90;2.97;;;;;;;;;;10205316;28;20212;-74
2021/07/28 22:19:50;;;;;;;4.67;2.20;;;;;;;;;;10211364;28;20286;-74
2021/07/28 22:24:54;;;;;;;5.77;2.40;;;;;;;;;;10237044;28;20259;-74
2021/07/28 22:29:57;;;;;;;4.83;2.33;;;;;;;;;;10241119;28;20743;-74
2021/07/28 22:35:00;;;;;;;5.87;2.20;;;;;;;;;;10251376;28;20238;-74
2021/07/28 22:40:03;;;;;;;4.43;2.00;;;;;;;;;;10254021;28;20240;-74
2021/07/28 22:45:06;;;;;;;5.07;2.50;;;;;;;;;;10245640;28;20236;-74
2021/07/28 22:55:30;;;;;;;4.27;2.03;;;;;;;;;;10246676;28;20305;-73
2021/07/28 23:00:45;;;;;;;5.37;2.37;;;;;;;;;;10254155;28;20205;-73
2021/07/28 23:11:10;;;;;;;4.93;2.17;;;;;;;;;;10257360;28;20262;-74
2021/07/28 23:16:12;;;;;;;5.30;2.10;;;;;;;;;;10257226;28;20222;-74
2021/07/28 23:21:17;;;;;;;5.30;2.50;;;;;;;;;;10253227;28;20185;-74
2021/07/28 23:26:19;;;;;;;5.67;2.40;;;;;;;;;;10253499;28;20315;-74
2021/07/28 23:31:22;;;;;;;3.87;2.00;;;;;;;;;;10248628;28;20728;-74
2021/07/28 23:36:26;;;;;;;5.03;2.20;;;;;;;;;;10254556;28;20271;-74
2021/07/28 23:41:29;;;;;;;4.17;2.17;;;;;;;;;;10254716;28;20228;-74
2021/07/28 23:46:31;;;;;;;4.47;2.20;;;;;;;;;;10250672;28;20212;-74
2021/07/28 23:51:35;;;;;;;6.03;2.10;;;;;;;;;;10255698;28;20573;-74
2021/07/28 23:56:39;;;;;;;5.63;2.27;;;;;;;;;;10250919;28;20225;-74
